Time;durP1;ratioP1;P1;durP2;ratioP2;P2;SDS_P1;SDS_P2;PMS_P1;PMS_P2;Temp;Humidity;BMP_temperature;BMP_pressure;BME280_temperature;BME280_humidity;BME280_pressure;Samples;Min_cycle;Max_cycle;Signal;HPM_P1;HPM_P2
2021/04/30 00:02:18;;;;;;;17.13;10.20;;;8.30;44.00;;;;;;5014338;28;20393;-76
2021/04/30 00:04:44;;;;;;;22.60;10.07;;;8.30;44.00;;;;;;5019456;28;20475;-76
2021/04/30 00:07:09;;;;;;;15.83;10.40;;;8.30;44.10;;;;;;5027640;28;20456;-76
2021/04/30 00:09:36;;;;;;;21.83;11.25;;;8.30;44.00;;;;;;5017209;28;20396;-76
2021/04/30 00:12:02;;;;;;;21.58;11.30;;;8.30;44.30;;;;;;5014377;28;20419;-77
2021/04/30 00:14:28;;;;;;;19.70;11.27;;;8.20;45.70;;;;;;5015125;28;20377;-77
2021/04/30 00:16:54;;;;;;;26.48;11.13;;;8.20;45.60;;;;;;5024879;28;20805;-75
2021/04/30 00:19:20;;;;;;;22.10;11.27;;;8.10;46.00;;;;;;5030005;28;20388;-76
2021/04/30 00:21:46;;;;;;;18.90;10.40;;;8.10;47.40;;;;;;5041742;28;20403;-75
2021/04/30 00:24:13;;;;;;;18.20;11.23;;;8.10;47.80;;;;;;5048501;28;20396;-76
2021/04/30 00:26:39;;;;;;;21.02;11.82;;;8.10;49.00;;;;;;5027197;28;20762;-77
2021/04/30 00:29:05;;;;;;;17.70;11.40;;;8.00;50.10;;;;;;5022909;28;20480;-77
2021/04/30 00:31:31;;;;;;;26.30;12.03;;;8.00;50.10;;;;;;5015202;28;20445;-77
2021/04/30 00:33:58;;;;;;;20.25;11.80;;;8.00;51.30;;;;;;5018485;28;20456;-77
2021/04/30 00:36:23;;;;;;;22.15;11.88;;;7.90;52.90;;;;;;5015945;28;20412;-77
2021/04/30 00:38:49;;;;;;;20.70;11.30;;;7.90;53.10;;;;;;5016515;28;20881;-77
2021/04/30 00:41:14;;;;;;;23.53;11.93;;;7.90;53.90;;;;;;5015627;28;20765;-77
2021/04/30 00:43:40;;;;;;;22.83;11.63;;;7.90;54.20;;;;;;5015735;28;20435;-77
2021/04/30 00:46:06;;;;;;;24.47;12.73;;;7.90;54.10;;;;;;5014494;28;20439;-77
2021/04/30 00:48:31;;;;;;;21.88;11.88;;;7.90;54.40;;;;;;5015943;28;20384;-77
2021/04/30 00:50:57;;;;;;;20.65;12.27;;;7.90;54.00;;;;;;5014873;28;20397;-77
2021/04/30 00:53:23;;;;;;;25.02;11.77;;;8.00;55.50;;;;;;5017554;28;20420;-77
2021/04/30 00:55:49;;;;;;;24.25;12.32;;;7.90;56.10;;;;;;5023154;28;20397;-77
2021/04/30 00:58:15;;;;;;;18.45;12.00;;;7.90;55.40;;;;;;5035648;28;20754;-77
2021/04/30 01:00:40;;;;;;;25.75;12.63;;;7.90;52.70;;;;;;5024480;28;20404;-77
2021/04/30 01:03:08;;;;;;;25.43;11.77;;;8.10;52.50;;;;;;5025868;28;20462;-77
2021/04/30 01:05:34;;;;;;;23.65;12.30;;;8.10;51.60;;;;;;5033367;28;20403;-77
2021/04/30 01:08:00;;;;;;;19.17;12.23;;;8.00;52.10;;;;;;5021602;28;20395;-77
2021/04/30 01:10:25;;;;;;;21.63;12.60;;;8.00;54.00;;;;;;5029855;28;20751;-77
2021/04/30 01:12:51;;;;;;;18.65;12.57;;;8.00;56.20;;;;;;5035059;28;20410;-77
2021/04/30 01:15:18;;;;;;;25.45;13.35;;;7.90;58.30;;;;;;5021544;28;20508;-76
2021/04/30 01:17:44;;;;;;;25.30;13.50;;;7.80;58.30;;;;;;5012483;28;20389;-77
2021/04/30 01:20:11;;;;;;;23.55;13.15;;;7.80;59.40;;;;;;5012331;28;20377;-76
2021/04/30 01:22:43;;;;;;;21.85;13.55;;;7.80;59.00;;;;;;5029702;28;20392;-76
2021/04/30 01:25:14;;;;;;;28.75;14.27;;;7.80;60.10;;;;;;5017521;28;20397;-76
2021/04/30 01:27:40;;;;;;;24.42;13.98;;;7.80;62.50;;;;;;4999235;28;20438;-76
2021/04/30 01:30:10;;;;;;;24.23;15.07;;;7.80;61.40;;;;;;4992997;28;20913;-76
2021/04/30 01:32:36;;;;;;;26.30;14.20;;;7.80;62.80;;;;;;5024126;23;20521;-70
2021/04/30 01:35:04;;;;;;;25.92;13.80;;;7.70;63.70;;;;;;5040672;28;20425;-71
2021/04/30 01:37:29;;;;;;;26.73;14.40;;;7.70;63.20;;;;;;5029746;28;20385;-71
2021/04/30 01:39:55;;;;;;;24.93;14.47;;;7.70;65.50;;;;;;5021359;28;20393;-70
2021/04/30 01:42:20;;;;;;;26.87;15.03;;;7.70;67.10;;;;;;5015807;28;20880;-70
2021/04/30 01:44:48;;;;;;;24.90;15.00;;;7.70;67.30;;;;;;5030010;28;20398;-70
2021/04/30 01:47:14;;;;;;;23.13;14.25;;;7.80;66.70;;;;;;5035212;28;20830;-70
2021/04/30 01:49:40;;;;;;;26.23;15.57;;;7.80;64.90;;;;;;5036751;28;20555;-70
2021/04/30 01:52:06;;;;;;;30.27;15.00;;;7.70;67.40;;;;;;5034871;28;20433;-70
2021/04/30 01:54:31;;;;;;;26.60;14.50;;;7.70;65.90;;;;;;5036451;28;20868;-70
2021/04/30 01:56:57;;;;;;;27.33;15.10;;;7.80;64.70;;;;;;5038357;28;20390;-70
2021/04/30 01:59:22;;;;;;;24.47;15.00;;;7.70;66.90;;;;;;5038931;28;20394;-71
2021/04/30 02:01:48;;;;;;;28.30;15.40;;;7.70;66.90;;;;;;5037113;28;20399;-70
2021/04/30 02:04:14;;;;;;;24.50;15.50;;;7.70;68.00;;;;;;5038204;28;20390;-70
2021/04/30 02:06:40;;;;;;;30.13;16.35;;;7.70;67.50;;;;;;5039324;28;20493;-70
2021/04/30 02:09:08;;;;;;;24.15;15.07;;;7.70;68.20;;;;;;5037375;28;20387;-70
2021/04/30 02:11:35;;;;;;;31.35;16.08;;;7.60;69.70;;;;;;5032546;28;20814;-71
2021/04/30 02:14:01;;;;;;;27.55;16.40;;;7.60;71.40;;;;;;5030504;28;20794;-71
2021/04/30 02:16:27;;;;;;;32.35;17.38;;;7.60;71.20;;;;;;5030264;28;20800;-71
2021/04/30 02:18:52;;;;;;;33.45;16.23;;;7.50;74.80;;;;;;5030323;28;20446;-71
2021/04/30 02:21:18;;;;;;;30.33;16.40;;;7.50;75.80;;;;;;5037763;28;20420;-71
2021/04/30 02:23:44;;;;;;;28.40;16.10;;;7.50;76.10;;;;;;5028615;28;20867;-71
2021/04/30 02:26:09;;;;;;;30.60;17.60;;;7.50;78.50;;;;;;5010487;28;20958;-71
2021/04/30 02:28:35;;;;;;;31.13;16.80;;;7.50;79.90;;;;;;5010139;28;20381;-71
2021/04/30 02:31:00;;;;;;;23.90;15.80;;;7.50;79.60;;;;;;5021854;28;20482;-71
2021/04/30 02:33:26;;;;;;;27.23;15.07;;;7.60;76.90;;;;;;5014777;28;20577;-71
2021/04/30 02:35:52;;;;;;;29.98;15.68;;;7.50;77.00;;;;;;5010000;28;20397;-70
2021/04/30 02:38:19;;;;;;;26.95;14.60;;;7.50;75.40;;;;;;5010196;28;20878;-71
2021/04/30 02:40:47;;;;;;;21.35;15.20;;;7.40;76.10;;;;;;5009986;28;20395;-71
2021/04/30 02:43:18;;;;;;;29.05;15.93;;;7.30;78.20;;;;;;5025563;28;20884;-69
2021/04/30 02:45:44;;;;;;;28.80;14.95;;;7.30;80.00;;;;;;5029589;28;20402;-69
2021/04/30 02:48:13;;;;;;;31.98;16.45;;;7.40;76.80;;;;;;5028226;28;20397;-69
2021/04/30 02:50:40;;;;;;;27.40;15.75;;;7.40;78.20;;;;;;5029509;28;20436;-70
2021/04/30 02:53:06;;;;;;;25.52;15.93;;;7.40;79.10;;;;;;5023750;28;20409;-70
2021/04/30 02:55:31;;;;;;;28.63;14.80;;;7.40;77.50;;;;;;5029653;28;20390;-70
2021/04/30 02:58:00;;;;;;;22.13;14.07;;;7.60;73.10;;;;;;5029829;28;20387;-71
2021/04/30 03:00:27;;;;;;;25.50;14.38;;;7.60;69.90;;;;;;5032420;28;20426;-70
2021/04/30 03:02:53;;;;;;;28.40;15.57;;;7.70;69.50;;;;;;5033249;28;20387;-70
2021/04/30 03:05:19;;;;;;;23.60;14.90;;;7.60;70.30;;;;;;5027913;28;20403;-70
2021/04/30 03:07:45;;;;;;;30.00;14.82;;;7.70;66.20;;;;;;5013751;28;20480;-71
2021/04/30 03:10:11;;;;;;;23.65;14.60;;;7.60;70.00;;;;;;5013705;28;20393;-70
2021/04/30 03:12:37;;;;;;;21.83;14.85;;;7.60;70.00;;;;;;5028457;28;20408;-70
2021/04/30 03:15:04;;;;;;;24.80;14.25;;;7.50;72.90;;;;;;5030853;28;20876;-71
2021/04/30 03:17:30;;;;;;;23.77;14.68;;;7.80;68.60;;;;;;5013533;28;20460;-70
2021/04/30 03:19:56;;;;;;;31.70;14.68;;;7.70;69.10;;;;;;5013364;28;20874;-70
2021/04/30 03:22:21;;;;;;;24.83;15.40;;;7.80;67.70;;;;;;5047818;28;20425;-70
2021/04/30 03:24:47;;;;;;;33.00;16.27;;;7.80;68.00;;;;;;5043391;28;20391;-70
2021/04/30 03:27:13;;;;;;;27.43;15.60;;;7.70;68.50;;;;;;5032326;28;20470;-70
2021/04/30 03:29:38;;;;;;;26.70;16.17;;;7.70;68.60;;;;;;5033014;28;20383;-70
2021/04/30 03:32:07;;;;;;;25.48;15.32;;;7.70;71.40;;;;;;5032197;28;20414;-70
2021/04/30 03:34:32;;;;;;;24.65;15.88;;;7.70;70.10;;;;;;5030042;28;20494;-70
2021/04/30 03:36:58;;;;;;;31.83;17.42;;;7.60;71.00;;;;;;5033125;28;20808;-70
2021/04/30 03:39:23;;;;;;;26.80;16.45;;;7.60;70.00;;;;;;5032906;28;20387;-70
2021/04/30 03:41:49;;;;;;;27.95;16.50;;;7.50;71.60;;;;;;5032472;28;20472;-70
2021/04/30 03:44:15;;;;;;;30.75;16.83;;;7.50;71.90;;;;;;5032506;28;20410;-70
2021/04/30 03:46:40;;;;;;;23.77;16.60;;;7.70;71.30;;;;;;5032472;28;20406;-71
2021/04/30 03:49:06;;;;;;;29.98;16.80;;;7.70;70.80;;;;;;5032586;28;20883;-70
2021/04/30 03:51:31;;;;;;;30.42;17.90;;;7.70;71.70;;;;;;5032754;28;20411;-71
2021/04/30 03:53:57;;;;;;;33.20;19.15;;;7.50;74.00;;;;;;5032589;28;20399;-70
2021/04/30 03:56:22;;;;;;;33.90;20.17;;;7.50;77.10;;;;;;5031963;28;20387;-71
2021/04/30 03:58:48;;;;;;;29.65;19.73;;;7.40;79.70;;;;;;5032288;28;20399;-70
2021/04/30 04:01:14;;;;;;;37.17;19.00;;;7.40;81.60;;;;;;5032662;28;20405;-70
2021/04/30 04:03:39;;;;;;;32.10;18.83;;;7.50;81.10;;;;;;5032144;28;20458;-69
2021/04/30 04:06:05;;;;;;;30.30;18.70;;;7.40;80.70;;;;;;5029025;28;20383;-69
2021/04/30 04:08:31;;;;;;;27.30;18.90;;;7.50;81.60;;;;;;5031939;28;20488;-69
2021/04/30 04:10:57;;;;;;;29.80;19.80;;;7.50;80.10;;;;;;5031232;28;20391;-71
2021/04/30 04:13:25;;;;;;;35.93;22.20;;;7.50;80.00;;;;;;5030668;28;20823;-69
2021/04/30 04:15:51;;;;;;;30.97;21.30;;;7.40;81.80;;;;;;5031939;28;20430;-70
2021/04/30 04:18:18;;;;;;;31.77;21.27;;;7.40;82.70;;;;;;5031933;28;20743;-70
2021/04/30 04:20:44;;;;;;;33.55;21.98;;;7.40;82.80;;;;;;5034428;28;20413;-70
2021/04/30 04:23:11;;;;;;;36.00;22.20;;;7.40;80.90;;;;;;5021887;28;20465;-70
2021/04/30 04:25:39;;;;;;;37.65;23.80;;;7.30;82.50;;;;;;5026151;28;20406;-70
2021/04/30 04:28:05;;;;;;;38.42;23.83;;;7.30;84.10;;;;;;5030378;28;20446;-70
2021/04/30 04:30:31;;;;;;;33.10;23.70;;;7.30;85.80;;;;;;5031662;28;20391;-70
2021/04/30 04:32:56;;;;;;;35.80;23.02;;;7.30;86.60;;;;;;5030337;28;20443;-72
2021/04/30 04:35:22;;;;;;;38.10;25.15;;;7.40;84.70;;;;;;5031891;28;20448;-71
2021/04/30 04:37:48;;;;;;;37.67;23.30;;;7.40;85.00;;;;;;5031490;28;20391;-70
2021/04/30 04:40:16;;;;;;;40.05;25.15;;;7.40;83.10;;;;;;5031599;28;20872;-70
2021/04/30 04:42:42;;;;;;;38.65;26.65;;;7.40;84.20;;;;;;5030583;28;20871;-71
2021/04/30 04:45:08;;;;;;;47.08;29.80;;;7.50;82.60;;;;;;5031445;28;20553;-71
2021/04/30 04:47:34;;;;;;;186.07;106.10;;;7.50;82.00;;;;;;5030597;28;20387;-70
2021/04/30 04:50:00;;;;;;;57.07;36.07;;;7.60;81.20;;;;;;5045566;28;20383;-70
2021/04/30 04:52:25;;;;;;;40.47;26.50;;;7.60;80.80;;;;;;5027371;28;20414;-70
2021/04/30 04:54:51;;;;;;;54.93;36.37;;;7.60;81.00;;;;;;5028640;28;20778;-70
2021/04/30 04:57:17;;;;;;;42.03;26.50;;;7.70;82.90;;;;;;5018337;28;20484;-68
2021/04/30 04:59:42;;;;;;;136.93;79.15;;;7.80;77.10;;;;;;5016190;28;20391;-70
2021/04/30 05:02:08;;;;;;;49.78;32.70;;;7.70;77.50;;;;;;5029798;28;20877;-70
2021/04/30 05:04:33;;;;;;;40.17;25.85;;;7.70;79.50;;;;;;5010191;28;20392;-70
2021/04/30 05:06:59;;;;;;;40.40;25.27;;;7.70;78.60;;;;;;5010900;28;20393;-70
2021/04/30 05:09:27;;;;;;;50.75;32.13;;;7.80;76.70;;;;;;5026228;28;20399;-70
2021/04/30 05:11:53;;;;;;;44.77;28.33;;;7.70;78.90;;;;;;5030502;28;20853;-70
2021/04/30 05:14:19;;;;;;;44.63;29.10;;;7.70;80.40;;;;;;5030429;28;20482;-70
2021/04/30 05:16:44;;;;;;;44.53;32.05;;;7.70;83.50;;;;;;5030942;28;20386;-71
2021/04/30 05:19:10;;;;;;;51.47;32.33;;;7.80;84.30;;;;;;5030948;28;20434;-70
2021/04/30 05:21:36;;;;;;;44.83;28.77;;;7.90;84.70;;;;;;5038105;28;20465;-70
2021/04/30 05:24:02;;;;;;;46.88;32.30;;;8.00;82.50;;;;;;5029494;28;20759;-70
2021/04/30 05:26:29;;;;;;;78.80;46.63;;;8.00;83.40;;;;;;5030760;28;20737;-70
2021/04/30 05:28:57;;;;;;;74.53;44.53;;;8.20;82.20;;;;;;5030686;28;20406;-70
2021/04/30 05:31:23;;;;;;;61.38;40.22;;;8.30;79.30;;;;;;5030229;28;20399;-70
2021/04/30 05:33:48;;;;;;;45.57;31.10;;;8.30;77.60;;;;;;5029897;28;20430;-71
2021/04/30 05:36:14;;;;;;;44.40;30.53;;;8.30;75.40;;;;;;5030282;28;20454;-69
2021/04/30 05:38:39;;;;;;;49.80;30.80;;;8.30;71.50;;;;;;5029998;28;20391;-69
2021/04/30 05:41:05;;;;;;;48.03;31.53;;;8.20;73.10;;;;;;5030567;28;20940;-69
2021/04/30 05:43:31;;;;;;;47.73;31.97;;;8.20;73.20;;;;;;5028972;28;20402;-70
2021/04/30 05:45:57;;;;;;;49.93;33.20;;;8.10;75.60;;;;;;5029932;28;20437;-69
2021/04/30 05:48:22;;;;;;;51.95;35.42;;;8.00;76.50;;;;;;5030111;28;20390;-69
2021/04/30 05:50:48;;;;;;;56.38;36.28;;;8.00;76.30;;;;;;5029870;28;20387;-69
2021/04/30 05:53:13;;;;;;;53.57;36.40;;;8.00;76.10;;;;;;5029605;28;20460;-70
2021/04/30 05:55:39;;;;;;;58.67;37.42;;;7.90;77.10;;;;;;5030064;28;20466;-69
2021/04/30 05:58:05;;;;;;;56.37;36.87;;;7.90;77.70;;;;;;5025294;28;20759;-69
2021/04/30 06:00:31;;;;;;;60.58;38.80;;;7.90;77.00;;;;;;5010293;28;20826;-70
2021/04/30 06:02:57;;;;;;;58.10;37.00;;;7.90;76.70;;;;;;5010143;28;20412;-70
2021/04/30 06:05:22;;;;;;;62.60;37.80;;;7.90;74.80;;;;;;5013418;28;20817;-70
2021/04/30 06:07:48;;;;;;;60.13;37.97;;;8.00;75.10;;;;;;5028678;28;20437;-69
2021/04/30 06:10:13;;;;;;;54.15;36.33;;;8.10;75.70;;;;;;5042587;28;20489;-69
2021/04/30 06:12:39;;;;;;;58.53;39.23;;;8.20;74.70;;;;;;5018586;28;20412;-69
2021/04/30 06:15:05;;;;;;;55.80;37.60;;;8.20;75.40;;;;;;5021269;28;20438;-73
2021/04/30 06:17:31;;;;;;;59.45;38.83;;;8.10;76.50;;;;;;5022822;28;20397;-71
2021/04/30 06:19:57;;;;;;;60.95;39.67;;;8.20;76.00;;;;;;5017059;28;20470;-70
2021/04/30 06:22:23;;;;;;;55.88;36.90;;;8.20;75.00;;;;;;5033172;28;20409;-75
2021/04/30 06:24:49;;;;;;;54.20;37.23;;;8.20;73.90;;;;;;5022797;28;20485;-72
2021/04/30 06:27:15;;;;;;;57.03;36.70;;;8.10;73.90;;;;;;5044500;28;20399;-72
2021/04/30 06:29:40;;;;;;;54.17;37.28;;;8.20;74.70;;;;;;5027974;28;20402;-71
2021/04/30 06:32:07;;;;;;;53.45;36.22;;;8.20;71.00;;;;;;5029123;28;20414;-70
2021/04/30 06:34:32;;;;;;;54.40;36.75;;;8.20;71.50;;;;;;5030947;28;20391;-70
2021/04/30 06:37:02;;;;;;;59.50;37.97;;;8.20;71.60;;;;;;5030968;28;20739;-72
2021/04/30 06:39:28;;;;;;;56.97;35.30;;;8.10;71.70;;;;;;5031303;28;20499;-69
2021/04/30 06:41:54;;;;;;;53.93;34.80;;;8.10;72.40;;;;;;5022389;28;20983;-71
2021/04/30 06:44:19;;;;;;;56.25;32.88;;;8.10;71.40;;;;;;5028993;28;20395;-71
2021/04/30 06:46:45;;;;;;;48.93;33.50;;;8.00;70.40;;;;;;5061004;28;20506;-72
2021/04/30 06:49:10;;;;;;;54.93;35.07;;;8.10;69.30;;;;;;5022094;28;20560;-72
2021/04/30 06:51:36;;;;;;;56.27;34.60;;;8.20;70.00;;;;;;5029885;28;20956;-71
2021/04/30 06:54:02;;;;;;;53.30;35.00;;;8.20;70.50;;;;;;5048120;28;20876;-72
2021/04/30 06:56:29;;;;;;;54.65;34.85;;;8.20;70.90;;;;;;5034005;28;20387;-72
2021/04/30 06:58:55;;;;;;;56.20;34.83;;;8.20;69.60;;;;;;5028976;28;20809;-72
2021/04/30 07:01:21;;;;;;;56.60;33.65;;;8.20;68.40;;;;;;5028625;28;20426;-72
2021/04/30 07:03:46;;;;;;;49.93;32.93;;;8.20;68.90;;;;;;5031815;28;20435;-73
2021/04/30 07:06:14;;;;;;;52.17;33.20;;;8.30;69.50;;;;;;5026270;28;20443;-72
2021/04/30 07:08:40;;;;;;;48.67;31.25;;;8.30;68.20;;;;;;5031847;28;20633;-71
2021/04/30 07:11:07;;;;;;;51.00;31.73;;;8.60;64.80;;;;;;5042532;28;20399;-71
2021/04/30 07:13:34;;;;;;;47.10;31.27;;;8.50;64.20;;;;;;5031427;28;20418;-71
2021/04/30 07:16:01;;;;;;;45.75;32.42;;;8.40;66.10;;;;;;5031506;28;20474;-72
2021/04/30 07:18:26;;;;;;;50.90;32.53;;;8.40;66.20;;;;;;5028584;28;20422;-70
2021/04/30 07:20:52;;;;;;;56.50;31.93;;;8.40;65.10;;;;;;5020533;28;20516;-70
2021/04/30 07:23:17;;;;;;;49.80;30.23;;;8.60;60.60;;;;;;5031874;28;20399;-70
2021/04/30 07:25:43;;;;;;;50.00;30.33;;;8.60;61.10;;;;;;5027428;28;20897;-71
2021/04/30 07:28:09;;;;;;;43.70;28.90;;;8.70;61.30;;;;;;5038045;28;20435;-71
2021/04/30 07:30:34;;;;;;;46.47;31.17;;;8.90;60.80;;;;;;5032327;28;20825;-70
2021/04/30 07:33:12;;;;;;;58.47;32.93;;;9.00;61.40;;;;;;5044698;22;20435;-77
2021/04/30 07:35:43;;;;;;;50.70;31.00;;;9.10;59.80;;;;;;5045137;28;20395;-76
2021/04/30 07:38:10;;;;;;;52.83;32.28;;;9.30;57.30;;;;;;5045992;28;20426;-78
2021/04/30 07:40:40;;;;;;;51.72;32.70;;;9.30;53.20;;;;;;5037383;28;20379;-75
2021/04/30 07:43:07;;;;;;;53.42;33.13;;;9.40;53.70;;;;;;5024687;28;20389;-77
2021/04/30 07:45:34;;;;;;;55.30;33.78;;;9.50;53.50;;;;;;5013895;28;20397;-77
2021/04/30 07:48:00;;;;;;;54.03;34.00;;;9.60;53.60;;;;;;5013062;28;20765;-75
2021/04/30 07:50:25;;;;;;;51.47;34.47;;;9.60;52.90;;;;;;5014804;28;20419;-75
2021/04/30 07:52:51;;;;;;;58.07;35.93;;;9.60;53.80;;;;;;5005066;28;20491;-77
2021/04/30 07:55:17;;;;;;;58.03;34.20;;;9.50;53.70;;;;;;5014680;28;20711;-76
2021/04/30 07:57:42;;;;;;;53.95;34.00;;;9.50;54.40;;;;;;5014627;28;20504;-76
2021/04/30 08:00:08;;;;;;;52.42;33.50;;;9.50;54.00;;;;;;5014822;28;20408;-76
2021/04/30 08:02:34;;;;;;;50.70;35.20;;;9.50;54.40;;;;;;5013948;28;20927;-77
2021/04/30 08:05:00;;;;;;;62.40;36.00;;;9.60;54.20;;;;;;5013353;28;20412;-76
2021/04/30 08:07:26;;;;;;;53.47;35.20;;;9.70;52.40;;;;;;5010297;28;20404;-76
2021/04/30 08:09:55;;;;;;;62.25;36.42;;;9.80;51.40;;;;;;5015023;28;20801;-76
2021/04/30 08:12:20;;;;;;;57.97;35.63;;;9.90;49.80;;;;;;5009167;28;20415;-76
2021/04/30 08:14:46;;;;;;;53.10;35.33;;;9.80;50.00;;;;;;5002224;28;20405;-77
2021/04/30 08:17:12;;;;;;;57.58;35.53;;;9.80;51.60;;;;;;5015003;28;20404;-77
2021/04/30 08:19:38;;;;;;;57.10;36.38;;;9.80;52.50;;;;;;5005022;28;20412;-76
2021/04/30 08:22:03;;;;;;;62.30;37.30;;;9.70;53.30;;;;;;5012605;28;20547;-76
2021/04/30 08:24:29;;;;;;;56.30;36.13;;;9.60;54.70;;;;;;5013362;28;20882;-76
2021/04/30 08:26:54;;;;;;;63.03;36.57;;;9.40;53.80;;;;;;5012119;28;20404;-77
2021/04/30 08:29:20;;;;;;;57.57;37.30;;;9.40;53.60;;;;;;5014724;28;20837;-77
2021/04/30 08:31:46;;;;;;;72.70;37.85;;;9.50;52.80;;;;;;5013002;28;20420;-74
2021/04/30 08:34:11;;;;;;;67.07;40.90;;;9.60;52.80;;;;;;5014839;28;20393;-74
2021/04/30 08:36:37;;;;;;;65.93;41.83;;;9.40;53.40;;;;;;5013886;28;20415;-73
2021/04/30 08:39:05;;;;;;;70.13;43.10;;;9.30;55.20;;;;;;5013916;28;20400;-74
2021/04/30 08:41:36;;;;;;;68.82;44.25;;;9.30;56.40;;;;;;5014462;28;20381;-74
2021/04/30 08:44:03;;;;;;;73.53;41.60;;;9.30;58.50;;;;;;5012013;28;20403;-72
2021/04/30 08:46:30;;;;;;;67.18;39.92;;;9.30;58.10;;;;;;5014588;28;20377;-74
2021/04/30 08:49:10;;;;;;;68.28;39.75;;;9.30;59.00;;;;;;5012386;28;20443;-76
2021/04/30 08:51:37;;;;;;;56.75;35.38;;;9.40;58.80;;;;;;5014148;28;20412;-76
2021/04/30 08:54:03;;;;;;;60.20;37.42;;;9.30;58.40;;;;;;5014148;28;20866;-76
2021/04/30 08:56:30;;;;;;;59.50;37.72;;;9.40;58.60;;;;;;5013591;28;20825;-75
2021/04/30 08:58:56;;;;;;;57.03;36.28;;;9.60;55.10;;;;;;5014675;28;20399;-76
2021/04/30 09:01:23;;;;;;;63.30;37.97;;;9.60;55.10;;;;;;5013605;28;20401;-75
2021/04/30 09:03:50;;;;;;;62.17;36.35;;;9.50;57.90;;;;;;5013636;28;20397;-76
2021/04/30 09:06:30;;;;;;;53.72;36.60;;;9.60;56.70;;;;;;5014441;28;20416;-76
2021/04/30 09:08:56;;;;;;;68.30;37.13;;;9.50;57.60;;;;;;5016195;28;20510;-76
2021/04/30 09:11:42;;;;;;;68.17;38.80;;;9.50;58.70;;;;;;5019025;28;20762;-77
2021/04/30 09:14:20;;;;;;;70.07;39.42;;;9.40;59.80;;;;;;5000615;28;20389;-76
2021/04/30 09:17:12;;;;;;;60.50;38.97;;;9.40;60.80;;;;;;5016020;28;20462;-76
2021/04/30 09:19:47;;;;;;;63.63;39.50;;;9.30;61.90;;;;;;5020719;28;20381;-76
2021/04/30 09:22:24;;;;;;;68.72;39.72;;;9.30;61.90;;;;;;5019199;28;20763;-76
2021/04/30 09:25:01;;;;;;;64.97;39.75;;;9.20;63.30;;;;;;5015570;28;20397;-76
2021/04/30 09:27:31;;;;;;;55.15;36.40;;;9.20;64.60;;;;;;5023950;28;20402;-75
2021/04/30 09:30:21;;;;;;;56.05;37.63;;;9.30;64.20;;;;;;5010329;28;20469;-76
2021/04/30 09:33:14;;;;;;;65.90;40.33;;;9.30;63.50;;;;;;5010922;28;20408;-76
2021/04/30 09:35:45;;;;;;;57.33;40.35;;;9.30;67.30;;;;;;5012248;28;20397;-77
2021/04/30 09:38:30;;;;;;;68.03;42.75;;;9.30;67.60;;;;;;5015564;28;20397;-76
2021/04/30 09:41:02;;;;;;;62.40;40.50;;;9.30;69.50;;;;;;5014496;28;20523;-78
2021/04/30 09:43:42;;;;;;;68.63;40.33;;;9.30;68.10;;;;;;5010194;28;20432;-76
2021/04/30 09:46:28;;;;;;;54.42;36.35;;;9.30;69.70;;;;;;4999706;28;20401;-76
2021/04/30 09:49:08;;;;;;;60.75;37.90;;;9.40;70.90;;;;;;5011358;28;20837;-76
2021/04/30 09:51:53;;;;;;;54.80;37.03;;;9.60;69.20;;;;;;5012724;28;20400;-75
2021/04/30 09:54:29;;;;;;;52.20;35.08;;;9.80;66.70;;;;;;5009038;28;20405;-75
2021/04/30 09:57:26;;;;;;;57.20;36.60;;;10.00;62.70;;;;;;5012813;28;20389;-74
2021/04/30 10:00:10;;;;;;;57.95;35.53;;;10.10;64.00;;;;;;5006497;28;20472;-75
2021/04/30 10:02:37;;;;;;;48.33;33.00;;;10.60;57.10;;;;;;5018160;28;20447;-75
2021/04/30 10:05:13;;;;;;;51.23;32.77;;;10.80;50.30;;;;;;5014621;28;20411;-75
2021/04/30 10:07:40;;;;;;;53.42;34.13;;;10.80;48.70;;;;;;5011953;28;20496;-75
2021/04/30 10:10:22;;;;;;;48.80;34.20;;;10.80;50.00;;;;;;5012102;28;20447;-75
2021/04/30 10:12:52;;;;;;;53.50;33.72;;;10.60;52.60;;;;;;5012407;28;20413;-74
2021/04/30 10:15:20;;;;;;;49.17;33.78;;;10.70;54.50;;;;;;5015059;28;20388;-76
2021/04/30 10:17:47;;;;;;;55.42;34.85;;;11.00;51.90;;;;;;5017187;28;20393;-75
2021/04/30 10:20:15;;;;;;;53.60;34.13;;;10.80;53.50;;;;;;5017224;28;20417;-75
2021/04/30 10:22:43;;;;;;;56.55;35.95;;;10.80;54.60;;;;;;5018321;28;20765;-75
2021/04/30 10:25:11;;;;;;;55.03;36.38;;;10.80;55.30;;;;;;5018146;28;20416;-77
2021/04/30 10:27:39;;;;;;;51.13;35.95;;;10.80;55.20;;;;;;5010300;28;20405;-74
2021/04/30 10:30:07;;;;;;;54.45;35.90;;;10.80;55.80;;;;;;4992461;28;20394;-75
2021/04/30 10:32:41;;;;;;;51.90;36.17;;;10.90;54.40;;;;;;5008663;28;20408;-73
2021/04/30 10:35:09;;;;;;;57.55;36.47;;;11.00;52.30;;;;;;5011180;28;20785;-74
2021/04/30 10:37:39;;;;;;;57.10;35.43;;;11.30;54.20;;;;;;5009317;28;20498;-74
2021/04/30 10:40:05;;;;;;;55.45;35.90;;;11.50;49.30;;;;;;4998215;28;20750;-75
2021/04/30 10:42:45;;;;;;;64.63;35.75;;;11.70;47.60;;;;;;5010726;28;20423;-74
2021/04/30 10:45:16;;;;;;;53.90;34.47;;;11.80;47.00;;;;;;5017437;28;20393;-73
2021/04/30 10:48:03;;;;;;;61.17;36.47;;;11.80;44.60;;;;;;5010792;28;20397;-73
2021/04/30 10:50:29;;;;;;;63.13;36.47;;;11.80;44.80;;;;;;5012451;28;20495;-74
2021/04/30 10:53:24;;;;;;;59.85;35.95;;;11.90;44.00;;;;;;5004854;28;20409;-75
2021/04/30 10:55:50;;;;;;;56.10;36.63;;;12.00;43.80;;;;;;5009283;28;20399;-74
2021/04/30 10:58:32;;;;;;;48.63;34.22;;;12.00;43.20;;;;;;5006935;28;20483;-73
2021/04/30 11:01:17;;;;;;;56.90;34.97;;;12.00;43.30;;;;;;5013965;28;20480;-74
2021/04/30 11:04:09;;;;;;;85.30;39.40;;;12.20;43.00;;;;;;5011024;28;20441;-75
2021/04/30 11:06:36;;;;;;;57.58;37.40;;;12.30;40.80;;;;;;5010130;28;20396;-74
2021/04/30 11:09:10;;;;;;;60.97;37.67;;;12.60;40.60;;;;;;5011130;28;20396;-77
2021/04/30 11:11:44;;;;;;;58.60;36.05;;;12.90;38.30;;;;;;5010937;28;20401;-76
2021/04/30 11:14:18;;;;;;;60.72;37.22;;;13.90;33.30;;;;;;5009532;28;20475;-75
2021/04/30 11:16:48;;;;;;;56.15;34.65;;;14.70;29.90;;;;;;5025335;28;20929;-76
2021/04/30 11:19:15;;;;;;;52.80;34.10;;;15.50;25.10;;;;;;5011626;28;20397;-76
2021/04/30 11:21:50;;;;;;;55.70;35.70;;;16.00;22.30;;;;;;5013295;28;20420;-75
2021/04/30 11:24:28;;;;;;;53.70;35.60;;;16.20;21.70;;;;;;5014334;28;20408;-76
2021/04/30 11:27:12;;;;;;;51.03;37.25;;;16.00;20.80;;;;;;5015292;28;20941;-76
2021/04/30 11:29:41;;;;;;;48.67;33.15;;;16.00;20.80;;;;;;5011110;28;20485;-76
2021/04/30 11:32:23;;;;;;;53.22;34.20;;;16.20;19.50;;;;;;5014381;28;20409;-76
2021/04/30 11:34:58;;;;;;;45.45;34.08;;;16.20;19.80;;;;;;5011388;28;20979;-75
2021/04/30 11:37:25;;;;;;;52.70;34.83;;;16.00;20.00;;;;;;5015934;28;20436;-75
2021/04/30 11:39:55;;;;;;;47.50;33.80;;;16.00;20.90;;;;;;5016612;28;20467;-76
2021/04/30 11:42:30;;;;;;;51.80;34.90;;;16.20;21.20;;;;;;5020545;28;20439;-74
2021/04/30 11:44:56;;;;;;;57.28;34.65;;;16.00;20.20;;;;;;5018016;28;20674;-75
2021/04/30 11:47:29;;;;;;;47.25;31.50;;;16.40;18.10;;;;;;5016422;28;20405;-76
2021/04/30 11:49:56;;;;;;;50.28;31.52;;;16.40;18.10;;;;;;5021613;28;20397;-76
2021/04/30 11:52:44;;;;;;;43.75;32.75;;;15.90;18.80;;;;;;5020690;28;20405;-74
2021/04/30 11:55:15;;;;;;;50.13;32.92;;;15.50;20.00;;;;;;5002168;28;20475;-76
2021/04/30 11:57:48;;;;;;;53.65;33.17;;;15.30;21.50;;;;;;5014376;28;20897;-72
2021/04/30 12:00:22;;;;;;;51.40;31.70;;;15.00;23.10;;;;;;5012882;28;20471;-73
2021/04/30 12:02:59;;;;;;;43.65;31.02;;;14.80;23.00;;;;;;5012997;28;20416;-73
2021/04/30 12:05:25;;;;;;;45.33;29.80;;;14.80;22.90;;;;;;5014941;28;20400;-77
2021/04/30 12:07:51;;;;;;;48.58;31.52;;;14.70;22.60;;;;;;5013985;28;20754;-76
2021/04/30 12:10:27;;;;;;;44.90;28.88;;;14.60;24.40;;;;;;5014107;28;20817;-76
2021/04/30 12:12:53;;;;;;;51.03;32.55;;;14.30;25.60;;;;;;5014698;28;20435;-76
2021/04/30 12:15:27;;;;;;;48.60;33.10;;;14.30;24.80;;;;;;5014298;28;20389;-76
2021/04/30 12:17:53;;;;;;;49.28;31.60;;;14.30;27.40;;;;;;5015311;28;20425;-75
2021/04/30 12:20:24;;;;;;;49.53;32.57;;;14.30;27.30;;;;;;5014167;28;20391;-76
2021/04/30 12:22:59;;;;;;;45.60;31.67;;;14.30;27.40;;;;;;5019854;28;20486;-76
2021/04/30 12:25:34;;;;;;;44.70;31.40;;;14.20;26.90;;;;;;5016796;28;20395;-76
2021/04/30 12:28:27;;;;;;;44.72;31.20;;;14.30;26.80;;;;;;5018142;28;20403;-75
2021/04/30 12:31:04;;;;;;;49.47;31.50;;;14.20;25.90;;;;;;5016249;28;20393;-76
2021/04/30 12:33:36;;;;;;;47.60;30.80;;;14.10;25.50;;;;;;5019763;28;20770;-75
2021/04/30 12:36:10;;;;;;;45.83;29.40;;;13.90;26.00;;;;;;5020033;28;20397;-76
2021/04/30 12:38:37;;;;;;;45.05;29.98;;;14.20;25.90;;;;;;5012067;28;20423;-75
2021/04/30 12:41:05;;;;;;;45.17;28.80;;;14.70;23.10;;;;;;5011868;28;20401;-76
2021/04/30 12:43:31;;;;;;;44.17;28.20;;;14.80;22.90;;;;;;5013091;28;20388;-76